Home   Weather   Australia   Hobart   Past weeks
Flag for Australia

Past Weather in Hobart, Tasmania, Australia — Yesterday and Last 2 Weeks

Currently: 59 °F. Passing clouds. (Weather station: Hobart Airport, Australia). See more current weather

Past Weather in Hobart — Graph

°F

Hobart Temperature Yesterday

Maximum temperature yesterday: 57 °F (at 2:30 pm)
Minimum temperature yesterday: 36 °F (at 4:30 am)
Average temperature yesterday: 45 °F

High & Low Weather Summary for the Past Weeks

 TemperatureHumidityPressure
High64 °F (May 13, 11:32 am)100% (May 13, 4:30 am)30.48 "Hg (May 13, 4:30 am)
Low36 °F (May 26, 4:30 am)42% (May 14, 1:00 pm)29.86 "Hg (May 13, 12:36 pm)
Average50 °F77%30.22 "Hg
* Reported May 12 11:00 am — May 27 11:00 am, Hobart. Weather by CustomWeather, © 2024

Note: Actual official high and low records may vary slightly from our data, if they occured in-between our weather recording intervals... More about our weather records

Hobart Weather History for the Previous 24 Hours

Scroll right to see more
 ConditionsComfort  
Time TempWeatherWind HumidityBarometerVisibility
11:00 am
Mon, May 27
59 °FPassing clouds.20 mph48%30.04 "HgN/A
10:30 am59 °FPassing clouds.17 mph51%30.07 "HgN/A
10:00 am59 °FPassing clouds.16 mph48%30.07 "HgN/A
9:30 am57 °FPassing clouds.12 mph55%30.07 "HgN/A
9:00 am55 °FPassing clouds.9 mph63%30.07 "HgN/A
8:30 am50 °FPassing clouds.6 mph76%30.07 "HgN/A
8:00 am48 °FPassing clouds.3 mph76%30.07 "HgN/A
7:30 am46 °FScattered clouds.5 mph82%30.04 "HgN/A
7:00 am48 °FPassing clouds.9 mph82%30.04 "HgN/A
6:30 am48 °FPassing clouds.12 mph82%30.04 "HgN/A
6:00 am46 °FPassing clouds.10 mph82%30.04 "HgN/A
5:30 am50 °FOvercast.10 mph76%30.04 "HgN/A
5:00 am48 °FMostly cloudy.3 mph76%30.04 "HgN/A
4:30 am50 °FPassing clouds.8 mph71%30.01 "HgN/A
4:00 am48 °FClear.10 mph76%30.04 "HgN/A
3:00 am48 °FClear.10 mph76%30.07 "HgN/A
2:30 am50 °FClear.10 mph71%30.07 "HgN/A
2:00 am48 °FClear.7 mph82%30.07 "HgN/A
1:30 am48 °FClear.8 mph76%30.09 "HgN/A
1:00 am52 °FClear.13 mph67%30.09 "HgN/A
12:00 am45 °FClear.7 mph87%30.12 "HgN/A
11:30 pm
Sun, May 26
46 °FPassing clouds.6 mph87%30.12 "HgN/A
11:00 pm46 °FClear.7 mph82%30.12 "Hg10 mi
10:30 pm48 °FClear.6 mph82%30.12 "Hg10 mi
10:00 pm50 °FClear.8 mph76%30.15 "Hg10 mi
9:00 pm50 °FClear.7 mph88%30.15 "Hg10 mi
8:30 pm48 °FClear.3 mph94%30.15 "Hg10 mi
8:00 pm48 °FClear.No wind87%30.15 "Hg10 mi
7:30 pm50 °FClear.No wind88%30.15 "Hg10 mi
7:00 pm50 °FClear.3 mph88%30.15 "Hg10 mi
6:30 pm50 °FClear.1 mph88%30.15 "Hg10 mi
6:00 pm50 °FClear.3 mph88%30.18 "Hg10 mi
5:30 pm50 °FClear.No wind88%30.18 "Hg10 mi
5:00 pm50 °FClear.3 mph88%30.18 "Hg10 mi
4:00 pm52 °FSunny.No wind77%30.18 "Hg10 mi
3:30 pm55 °FPassing clouds.5 mph67%30.21 "HgN/A
3:00 pm55 °FPassing clouds.6 mph67%30.21 "HgN/A
2:30 pm57 °FScattered clouds.2 mph59%30.21 "HgN/A
2:00 pm55 °FScattered clouds.6 mph63%30.21 "HgN/A
1:30 pm55 °FScattered clouds.6 mph63%30.21 "HgN/A
1:00 pm54 °FPassing clouds.7 mph67%30.24 "HgN/A
Weather by CustomWeather, © 2024

See weather overview